This is the latest recevied weather packets stored in our database for station/object W4FXD. If no packets are shown the sender has not sent any weather packets the latest 1 day(s).
| Time | Temp. | Humidity | Pressure | Rain* | Wind** | Luminosity | Snow |
|---|---|---|---|---|---|---|---|
| 1777999960 | 22.22° C | 55% | 1014.8 hPa | 0 mm | 1.34 m/s, 181° | 427 W/m² | - |
| 1777999656 | 21.67° C | 56% | 1015.1 hPa | 0 mm | 0.89 m/s, 92° | 299 W/m² | - |
| 1777999353 | 21.67° C | 61% | 1014.9 hPa | 0 mm | 0.45 m/s, 334° | 452 W/m² | - |
| 1777999051 | 21.67° C | 60% | 1015.1 hPa | 0 mm | 0.89 m/s, 153° | 331 W/m² | - |
| 1777998750 | 21.11° C | 61% | 1015.2 hPa | 0 mm | 1.34 m/s, 179° | 391 W/m² | - |
| 1777998446 | 21.11° C | 59% | 1015 hPa | 0 mm | 1.34 m/s, 184° | 262 W/m² | - |
| 1777998144 | 21.67° C | 57% | 1015.2 hPa | 0 mm | 0.45 m/s, 174° | 333 W/m² | - |
| 1777997840 | 21.67° C | 58% | 1014.9 hPa | 0 mm | 0.45 m/s, 355° | 344 W/m² | - |
| 1777997538 | 21.67° C | 58% | 1015.1 hPa | 0 mm | 0 m/s | 410 W/m² | - |
| 1777997235 | 21.67° C | 56% | 1015.1 hPa | 0 mm | 0.89 m/s, 185° | 512 W/m² | - |
| 1777996933 | 21.11° C | 59% | 1015.3 hPa | 0 mm | 0.89 m/s, 191° | 493 W/m² | - |
| 1777996629 | 21.11° C | 59% | 1015.1 hPa | 0 mm | 0.45 m/s, 184° | 436 W/m² | - |
| 1777996325 | 21.11° C | 59% | 1015.2 hPa | 0 mm | 0.45 m/s, 194° | 585 W/m² | - |
| 1777996022 | 21.67° C | 60% | 1015.4 hPa | 0 mm | 0.45 m/s, 152° | 629 W/m² | - |
| 1777995718 | 20.56° C | 61% | 1015.3 hPa | 0 mm | 0.45 m/s, 194° | 547 W/m² | - |
| 1777995415 | 21.11° C | 60% | 1015 hPa | 0 mm | 0.89 m/s, 188° | 405 W/m² | - |
| 1777995112 | 21.11° C | 60% | 1015.2 hPa | 0 mm | 0.45 m/s, 159° | 444 W/m² | - |
| 1777994809 | 20.56° C | 60% | 1015.1 hPa | 0 mm | 0.89 m/s, 182° | 480 W/m² | - |
| 1777994504 | 20.56° C | 62% | 1014.9 hPa | 0 mm | 0.45 m/s, 152° | 389 W/m² | - |
| 1777994200 | 20° C | 60% | 1015 hPa | 0 mm | 0.89 m/s, 158° | 444 W/m² | - |
| 1777993898 | 20° C | 59% | 1015 hPa | 0 mm | 0.45 m/s, 180° | 405 W/m² | - |
| 1777993593 | 20° C | 60% | 1014.9 hPa | 0 mm | 0.45 m/s, 118° | 379 W/m² | - |
| 1777993291 | 20° C | 60% | 1015 hPa | 0 mm | 0 m/s | 291 W/m² | - |
| 1777992986 | 20° C | 59% | 1015.1 hPa | 0 mm | 0.45 m/s, 181° | 413 W/m² | - |
| 1777992685 | 20° C | 58% | 1015.1 hPa | 0 mm | 0.45 m/s, 199° | 399 W/m² | - |
* Rain latest hour (hover to see other rain measurements)
** Current wind speed in m/s (hover to see current wind gust speed)